sensor_id;sensor_type;location;lat;lon;timestamp;P1;durP1;ratioP1;P2;durP2;ratioP2
20181;SDS011;10250;50.756;6.172;2022-07-06T00:01:04;7.53;;;1.80;;
20181;SDS011;10250;50.756;6.172;2022-07-06T00:03:05;5.13;;;1.30;;
20181;SDS011;10250;50.756;6.172;2022-07-06T00:05:06;4.10;;;1.23;;
20181;SDS011;10250;50.756;6.172;2022-07-06T00:07:07;5.13;;;1.43;;
20181;SDS011;10250;50.756;6.172;2022-07-06T00:09:07;4.03;;;1.30;;
20181;SDS011;10250;50.756;6.172;2022-07-06T00:11:08;6.30;;;1.47;;
20181;SDS011;10250;50.756;6.172;2022-07-06T00:13:09;3.33;;;1.37;;
20181;SDS011;10250;50.756;6.172;2022-07-06T00:15:10;3.50;;;1.30;;
20181;SDS011;10250;50.756;6.172;2022-07-06T00:17:10;2.97;;;1.20;;
20181;SDS011;10250;50.756;6.172;2022-07-06T00:19:11;3.07;;;1.17;;
20181;SDS011;10250;50.756;6.172;2022-07-06T00:21:12;4.30;;;1.30;;
20181;SDS011;10250;50.756;6.172;2022-07-06T00:23:13;3.37;;;1.27;;
20181;SDS011;10250;50.756;6.172;2022-07-06T00:25:14;3.47;;;1.23;;
20181;SDS011;10250;50.756;6.172;2022-07-06T00:27:14;2.80;;;1.13;;
20181;SDS011;10250;50.756;6.172;2022-07-06T00:29:15;4.47;;;1.57;;
20181;SDS011;10250;50.756;6.172;2022-07-06T00:31:16;7.20;;;1.50;;
20181;SDS011;10250;50.756;6.172;2022-07-06T00:33:16;3.73;;;1.23;;
20181;SDS011;10250;50.756;6.172;2022-07-06T00:35:17;2.23;;;0.87;;
20181;SDS011;10250;50.756;6.172;2022-07-06T00:37:17;4.30;;;1.47;;
20181;SDS011;10250;50.756;6.172;2022-07-06T00:39:18;2.87;;;1.33;;
20181;SDS011;10250;50.756;6.172;2022-07-06T00:43:21;3.97;;;1.40;;
20181;SDS011;10250;50.756;6.172;2022-07-06T00:45:22;5.77;;;1.47;;
20181;SDS011;10250;50.756;6.172;2022-07-06T00:47:23;5.77;;;1.23;;
20181;SDS011;10250;50.756;6.172;2022-07-06T00:49:23;4.47;;;1.40;;
20181;SDS011;10250;50.756;6.172;2022-07-06T00:51:43;4.97;;;1.40;;
20181;SDS011;10250;50.756;6.172;2022-07-06T00:53:43;3.90;;;1.00;;
20181;SDS011;10250;50.756;6.172;2022-07-06T00:55:45;3.47;;;1.20;;
20181;SDS011;10250;50.756;6.172;2022-07-06T00:57:46;3.13;;;1.20;;
20181;SDS011;10250;50.756;6.172;2022-07-06T00:59:47;4.83;;;1.30;;
20181;SDS011;10250;50.756;6.172;2022-07-06T01:01:47;4.73;;;1.50;;
20181;SDS011;10250;50.756;6.172;2022-07-06T01:03:48;4.33;;;1.30;;
20181;SDS011;10250;50.756;6.172;2022-07-06T01:05:49;4.37;;;1.27;;
20181;SDS011;10250;50.756;6.172;2022-07-06T01:07:51;4.30;;;1.23;;
20181;SDS011;10250;50.756;6.172;2022-07-06T01:09:52;4.70;;;1.40;;
20181;SDS011;10250;50.756;6.172;2022-07-06T01:11:53;3.37;;;1.23;;
20181;SDS011;10250;50.756;6.172;2022-07-06T01:13:54;2.07;;;0.97;;
20181;SDS011;10250;50.756;6.172;2022-07-06T01:15:56;5.63;;;1.43;;
20181;SDS011;10250;50.756;6.172;2022-07-06T01:17:57;3.10;;;1.20;;
20181;SDS011;10250;50.756;6.172;2022-07-06T01:20:10;3.30;;;1.20;;
20181;SDS011;10250;50.756;6.172;2022-07-06T01:22:10;5.53;;;1.40;;
20181;SDS011;10250;50.756;6.172;2022-07-06T01:24:11;5.27;;;1.60;;
20181;SDS011;10250;50.756;6.172;2022-07-06T01:26:19;3.70;;;1.23;;
20181;SDS011;10250;50.756;6.172;2022-07-06T01:28:20;3.80;;;1.40;;
20181;SDS011;10250;50.756;6.172;2022-07-06T01:30:21;4.07;;;1.23;;
20181;SDS011;10250;50.756;6.172;2022-07-06T01:32:22;4.80;;;1.57;;
20181;SDS011;10250;50.756;6.172;2022-07-06T01:34:23;4.10;;;1.20;;
20181;SDS011;10250;50.756;6.172;2022-07-06T01:36:23;2.67;;;1.20;;
20181;SDS011;10250;50.756;6.172;2022-07-06T01:38:24;3.97;;;1.20;;
20181;SDS011;10250;50.756;6.172;2022-07-06T01:40:25;4.13;;;1.40;;
20181;SDS011;10250;50.756;6.172;2022-07-06T01:42:26;4.83;;;1.43;;
20181;SDS011;10250;50.756;6.172;2022-07-06T01:44:27;4.67;;;1.50;;
20181;SDS011;10250;50.756;6.172;2022-07-06T01:46:27;3.83;;;1.17;;
20181;SDS011;10250;50.756;6.172;2022-07-06T01:48:28;2.87;;;1.13;;
20181;SDS011;10250;50.756;6.172;2022-07-06T01:50:28;5.97;;;1.27;;
20181;SDS011;10250;50.756;6.172;2022-07-06T01:52:29;4.90;;;1.50;;
20181;SDS011;10250;50.756;6.172;2022-07-06T01:54:30;5.33;;;1.60;;
20181;SDS011;10250;50.756;6.172;2022-07-06T01:56:31;2.77;;;1.20;;
20181;SDS011;10250;50.756;6.172;2022-07-06T01:58:32;3.60;;;1.40;;
20181;SDS011;10250;50.756;6.172;2022-07-06T02:00:32;3.63;;;1.47;;
20181;SDS011;10250;50.756;6.172;2022-07-06T02:02:33;4.60;;;1.33;;
20181;SDS011;10250;50.756;6.172;2022-07-06T02:04:34;5.50;;;1.53;;
20181;SDS011;10250;50.756;6.172;2022-07-06T02:06:34;5.07;;;1.43;;
20181;SDS011;10250;50.756;6.172;2022-07-06T02:08:35;3.20;;;1.10;;
20181;SDS011;10250;50.756;6.172;2022-07-06T02:10:36;4.77;;;1.40;;
20181;SDS011;10250;50.756;6.172;2022-07-06T02:12:36;5.70;;;1.60;;
20181;SDS011;10250;50.756;6.172;2022-07-06T02:14:37;4.53;;;1.50;;
20181;SDS011;10250;50.756;6.172;2022-07-06T02:16:38;5.43;;;1.27;;
20181;SDS011;10250;50.756;6.172;2022-07-06T02:18:38;6.73;;;1.67;;
20181;SDS011;10250;50.756;6.172;2022-07-06T02:20:39;8.30;;;1.73;;
20181;SDS011;10250;50.756;6.172;2022-07-06T02:22:40;4.23;;;1.47;;
20181;SDS011;10250;50.756;6.172;2022-07-06T02:24:40;3.20;;;1.20;;
20181;SDS011;10250;50.756;6.172;2022-07-06T02:26:41;4.63;;;1.60;;
20181;SDS011;10250;50.756;6.172;2022-07-06T02:28:41;4.20;;;1.50;;
20181;SDS011;10250;50.756;6.172;2022-07-06T02:30:42;4.80;;;1.40;;
20181;SDS011;10250;50.756;6.172;2022-07-06T02:32:43;5.33;;;1.50;;
20181;SDS011;10250;50.756;6.172;2022-07-06T02:34:43;5.80;;;1.50;;
20181;SDS011;10250;50.756;6.172;2022-07-06T02:36:44;4.17;;;1.40;;
20181;SDS011;10250;50.756;6.172;2022-07-06T02:38:44;7.90;;;1.83;;
20181;SDS011;10250;50.756;6.172;2022-07-06T02:40:45;6.87;;;1.70;;
20181;SDS011;10250;50.756;6.172;2022-07-06T02:42:46;4.50;;;1.47;;
20181;SDS011;10250;50.756;6.172;2022-07-06T02:44:46;5.83;;;1.47;;
20181;SDS011;10250;50.756;6.172;2022-07-06T02:46:47;4.17;;;1.30;;
20181;SDS011;10250;50.756;6.172;2022-07-06T02:48:48;5.17;;;1.50;;
20181;SDS011;10250;50.756;6.172;2022-07-06T02:50:48;3.97;;;1.53;;
20181;SDS011;10250;50.756;6.172;2022-07-06T02:52:49;7.10;;;2.00;;
20181;SDS011;10250;50.756;6.172;2022-07-06T02:54:50;5.20;;;1.33;;
20181;SDS011;10250;50.756;6.172;2022-07-06T02:56:51;4.80;;;1.37;;
20181;SDS011;10250;50.756;6.172;2022-07-06T02:58:53;5.20;;;1.40;;
20181;SDS011;10250;50.756;6.172;2022-07-06T03:00:53;7.70;;;1.57;;
20181;SDS011;10250;50.756;6.172;2022-07-06T03:02:54;5.37;;;1.40;;
20181;SDS011;10250;50.756;6.172;2022-07-06T03:04:55;4.90;;;1.47;;
20181;SDS011;10250;50.756;6.172;2022-07-06T03:06:56;6.53;;;1.80;;
20181;SDS011;10250;50.756;6.172;2022-07-06T03:08:57;5.23;;;1.63;;
20181;SDS011;10250;50.756;6.172;2022-07-06T03:10:57;5.07;;;1.30;;
20181;SDS011;10250;50.756;6.172;2022-07-06T03:12:58;4.73;;;1.40;;
20181;SDS011;10250;50.756;6.172;2022-07-06T03:14:59;4.13;;;1.20;;
20181;SDS011;10250;50.756;6.172;2022-07-06T03:16:59;6.70;;;1.70;;
20181;SDS011;10250;50.756;6.172;2022-07-06T03:19:00;4.13;;;1.40;;
20181;SDS011;10250;50.756;6.172;2022-07-06T03:21:00;5.87;;;1.87;;
20181;SDS011;10250;50.756;6.172;2022-07-06T03:23:03;5.13;;;1.40;;
20181;SDS011;10250;50.756;6.172;2022-07-06T03:25:04;5.07;;;1.70;;
20181;SDS011;10250;50.756;6.172;2022-07-06T03:27:04;3.40;;;1.33;;
20181;SDS011;10250;50.756;6.172;2022-07-06T03:29:05;5.27;;;1.53;;
20181;SDS011;10250;50.756;6.172;2022-07-06T03:31:06;6.93;;;2.00;;
20181;SDS011;10250;50.756;6.172;2022-07-06T03:33:06;7.73;;;1.90;;
20181;SDS011;10250;50.756;6.172;2022-07-06T03:35:07;8.20;;;2.00;;
20181;SDS011;10250;50.756;6.172;2022-07-06T03:37:08;7.57;;;1.97;;
20181;SDS011;10250;50.756;6.172;2022-07-06T03:39:09;6.13;;;1.77;;
20181;SDS011;10250;50.756;6.172;2022-07-06T03:41:10;4.83;;;1.50;;
20181;SDS011;10250;50.756;6.172;2022-07-06T03:43:10;6.73;;;1.90;;
20181;SDS011;10250;50.756;6.172;2022-07-06T03:45:11;5.40;;;1.73;;
20181;SDS011;10250;50.756;6.172;2022-07-06T03:47:11;5.40;;;1.60;;
20181;SDS011;10250;50.756;6.172;2022-07-06T03:49:12;7.23;;;1.83;;
20181;SDS011;10250;50.756;6.172;2022-07-06T03:51:13;5.30;;;1.57;;
20181;SDS011;10250;50.756;6.172;2022-07-06T03:53:13;4.90;;;1.43;;
20181;SDS011;10250;50.756;6.172;2022-07-06T03:55:14;6.13;;;1.70;;
20181;SDS011;10250;50.756;6.172;2022-07-06T03:57:15;6.13;;;1.80;;
20181;SDS011;10250;50.756;6.172;2022-07-06T03:59:16;5.40;;;1.73;;
20181;SDS011;10250;50.756;6.172;2022-07-06T04:01:17;6.27;;;1.70;;
20181;SDS011;10250;50.756;6.172;2022-07-06T04:03:17;6.03;;;1.70;;
20181;SDS011;10250;50.756;6.172;2022-07-06T04:05:18;4.70;;;1.63;;
20181;SDS011;10250;50.756;6.172;2022-07-06T04:07:21;6.10;;;1.80;;
20181;SDS011;10250;50.756;6.172;2022-07-06T04:09:21;5.37;;;1.50;;
20181;SDS011;10250;50.756;6.172;2022-07-06T04:11:22;6.27;;;1.60;;
20181;SDS011;10250;50.756;6.172;2022-07-06T04:13:23;4.67;;;1.60;;
20181;SDS011;10250;50.756;6.172;2022-07-06T04:15:25;6.50;;;1.90;;
20181;SDS011;10250;50.756;6.172;2022-07-06T04:17:25;5.53;;;1.70;;
20181;SDS011;10250;50.756;6.172;2022-07-06T04:19:44;5.77;;;1.60;;
20181;SDS011;10250;50.756;6.172;2022-07-06T04:21:45;5.47;;;1.70;;
20181;SDS011;10250;50.756;6.172;2022-07-06T04:23:45;4.67;;;1.63;;
20181;SDS011;10250;50.756;6.172;2022-07-06T04:25:46;5.27;;;1.60;;
20181;SDS011;10250;50.756;6.172;2022-07-06T04:27:47;4.90;;;1.63;;
20181;SDS011;10250;50.756;6.172;2022-07-06T04:29:47;6.43;;;1.83;;
20181;SDS011;10250;50.756;6.172;2022-07-06T04:31:48;8.43;;;1.93;;
20181;SDS011;10250;50.756;6.172;2022-07-06T04:33:49;6.73;;;1.93;;
20181;SDS011;10250;50.756;6.172;2022-07-06T04:35:49;11.73;;;2.30;;
20181;SDS011;10250;50.756;6.172;2022-07-06T04:37:50;7.40;;;2.00;;
20181;SDS011;10250;50.756;6.172;2022-07-06T04:39:50;7.87;;;2.10;;
20181;SDS011;10250;50.756;6.172;2022-07-06T04:41:51;7.63;;;2.00;;
20181;SDS011;10250;50.756;6.172;2022-07-06T04:43:51;7.40;;;1.83;;
20181;SDS011;10250;50.756;6.172;2022-07-06T04:45:52;7.60;;;2.10;;
20181;SDS011;10250;50.756;6.172;2022-07-06T04:47:53;8.83;;;2.10;;
20181;SDS011;10250;50.756;6.172;2022-07-06T04:49:53;6.77;;;1.97;;
20181;SDS011;10250;50.756;6.172;2022-07-06T04:51:54;8.97;;;2.10;;
20181;SDS011;10250;50.756;6.172;2022-07-06T04:53:55;6.33;;;2.00;;
20181;SDS011;10250;50.756;6.172;2022-07-06T04:55:55;7.87;;;1.80;;
20181;SDS011;10250;50.756;6.172;2022-07-06T04:57:56;8.00;;;1.93;;
20181;SDS011;10250;50.756;6.172;2022-07-06T04:59:56;8.73;;;2.10;;
20181;SDS011;10250;50.756;6.172;2022-07-06T05:01:57;6.73;;;2.10;;
20181;SDS011;10250;50.756;6.172;2022-07-06T05:03:58;8.17;;;2.40;;
20181;SDS011;10250;50.756;6.172;2022-07-06T05:05:58;7.47;;;2.00;;
20181;SDS011;10250;50.756;6.172;2022-07-06T05:07:59;7.63;;;2.07;;
20181;SDS011;10250;50.756;6.172;2022-07-06T05:09:59;7.40;;;2.00;;
20181;SDS011;10250;50.756;6.172;2022-07-06T05:12:00;8.43;;;2.23;;
20181;SDS011;10250;50.756;6.172;2022-07-06T05:14:00;7.53;;;2.27;;
20181;SDS011;10250;50.756;6.172;2022-07-06T05:16:01;7.87;;;2.10;;
20181;SDS011;10250;50.756;6.172;2022-07-06T05:18:02;8.27;;;2.33;;
20181;SDS011;10250;50.756;6.172;2022-07-06T05:20:03;7.50;;;1.90;;
20181;SDS011;10250;50.756;6.172;2022-07-06T05:22:07;7.90;;;2.30;;
20181;SDS011;10250;50.756;6.172;2022-07-06T05:24:08;5.57;;;1.60;;
20181;SDS011;10250;50.756;6.172;2022-07-06T05:26:08;8.50;;;2.20;;
20181;SDS011;10250;50.756;6.172;2022-07-06T05:28:09;6.50;;;1.97;;
20181;SDS011;10250;50.756;6.172;2022-07-06T05:30:10;6.90;;;1.83;;
20181;SDS011;10250;50.756;6.172;2022-07-06T05:32:11;6.57;;;1.93;;
20181;SDS011;10250;50.756;6.172;2022-07-06T05:34:11;7.77;;;2.00;;
20181;SDS011;10250;50.756;6.172;2022-07-06T05:36:12;8.10;;;2.17;;
20181;SDS011;10250;50.756;6.172;2022-07-06T05:38:12;8.80;;;2.13;;
20181;SDS011;10250;50.756;6.172;2022-07-06T05:40:13;8.20;;;2.40;;
20181;SDS011;10250;50.756;6.172;2022-07-06T05:42:14;7.17;;;2.20;;
20181;SDS011;10250;50.756;6.172;2022-07-06T05:44:15;7.93;;;2.07;;
20181;SDS011;10250;50.756;6.172;2022-07-06T05:46:15;8.23;;;2.20;;
20181;SDS011;10250;50.756;6.172;2022-07-06T05:48:16;12.90;;;2.47;;
20181;SDS011;10250;50.756;6.172;2022-07-06T05:50:36;7.17;;;2.00;;
20181;SDS011;10250;50.756;6.172;2022-07-06T05:52:36;7.30;;;1.93;;
20181;SDS011;10250;50.756;6.172;2022-07-06T05:54:37;6.47;;;1.97;;
20181;SDS011;10250;50.756;6.172;2022-07-06T05:56:38;7.43;;;2.00;;
20181;SDS011;10250;50.756;6.172;2022-07-06T05:58:38;7.03;;;2.10;;
20181;SDS011;10250;50.756;6.172;2022-07-06T06:00:39;9.30;;;2.57;;
20181;SDS011;10250;50.756;6.172;2022-07-06T06:02:40;9.43;;;2.63;;
20181;SDS011;10250;50.756;6.172;2022-07-06T06:04:41;10.60;;;2.30;;
20181;SDS011;10250;50.756;6.172;2022-07-06T06:06:42;9.43;;;1.83;;
20181;SDS011;10250;50.756;6.172;2022-07-06T06:08:42;7.20;;;1.63;;
20181;SDS011;10250;50.756;6.172;2022-07-06T06:10:43;4.70;;;1.27;;
20181;SDS011;10250;50.756;6.172;2022-07-06T06:12:44;2.73;;;0.90;;
20181;SDS011;10250;50.756;6.172;2022-07-06T06:14:45;5.20;;;1.03;;
20181;SDS011;10250;50.756;6.172;2022-07-06T06:16:45;4.63;;;0.93;;
20181;SDS011;10250;50.756;6.172;2022-07-06T06:18:46;2.67;;;1.00;;
20181;SDS011;10250;50.756;6.172;2022-07-06T06:20:47;1.30;;;0.70;;
20181;SDS011;10250;50.756;6.172;2022-07-06T06:22:48;1.37;;;0.80;;
20181;SDS011;10250;50.756;6.172;2022-07-06T06:24:49;2.60;;;0.80;;
20181;SDS011;10250;50.756;6.172;2022-07-06T06:26:49;3.00;;;1.00;;
20181;SDS011;10250;50.756;6.172;2022-07-06T06:28:50;5.60;;;1.67;;
20181;SDS011;10250;50.756;6.172;2022-07-06T06:30:51;2.87;;;1.10;;
20181;SDS011;10250;50.756;6.172;2022-07-06T06:32:51;5.47;;;1.40;;
20181;SDS011;10250;50.756;6.172;2022-07-06T06:35:04;2.97;;;1.10;;
20181;SDS011;10250;50.756;6.172;2022-07-06T06:37:06;3.37;;;1.10;;
20181;SDS011;10250;50.756;6.172;2022-07-06T06:39:07;5.50;;;1.03;;
20181;SDS011;10250;50.756;6.172;2022-07-06T06:41:07;3.37;;;0.90;;
20181;SDS011;10250;50.756;6.172;2022-07-06T06:43:08;6.50;;;1.10;;
20181;SDS011;10250;50.756;6.172;2022-07-06T06:45:09;2.77;;;0.93;;
20181;SDS011;10250;50.756;6.172;2022-07-06T06:47:09;8.43;;;1.20;;
20181;SDS011;10250;50.756;6.172;2022-07-06T06:49:10;4.83;;;1.00;;
20181;SDS011;10250;50.756;6.172;2022-07-06T06:51:11;3.20;;;1.27;;
20181;SDS011;10250;50.756;6.172;2022-07-06T06:53:11;3.57;;;1.00;;
20181;SDS011;10250;50.756;6.172;2022-07-06T06:55:12;3.37;;;0.90;;
20181;SDS011;10250;50.756;6.172;2022-07-06T06:57:13;3.90;;;1.10;;
20181;SDS011;10250;50.756;6.172;2022-07-06T06:59:13;6.57;;;1.97;;
20181;SDS011;10250;50.756;6.172;2022-07-06T07:01:14;5.07;;;1.10;;
20181;SDS011;10250;50.756;6.172;2022-07-06T07:03:14;3.20;;;1.00;;
20181;SDS011;10250;50.756;6.172;2022-07-06T07:05:15;5.33;;;1.10;;
20181;SDS011;10250;50.756;6.172;2022-07-06T07:07:16;3.60;;;0.90;;
20181;SDS011;10250;50.756;6.172;2022-07-06T07:09:16;2.77;;;1.00;;
20181;SDS011;10250;50.756;6.172;2022-07-06T07:11:17;3.93;;;1.00;;
20181;SDS011;10250;50.756;6.172;2022-07-06T07:13:18;5.93;;;1.33;;
20181;SDS011;10250;50.756;6.172;2022-07-06T07:15:18;3.63;;;1.10;;
20181;SDS011;10250;50.756;6.172;2022-07-06T07:17:19;6.00;;;1.10;;
20181;SDS011;10250;50.756;6.172;2022-07-06T07:19:20;7.27;;;1.30;;
20181;SDS011;10250;50.756;6.172;2022-07-06T07:21:20;5.50;;;1.37;;
20181;SDS011;10250;50.756;6.172;2022-07-06T07:23:21;6.10;;;1.40;;
20181;SDS011;10250;50.756;6.172;2022-07-06T07:25:22;3.00;;;1.17;;
20181;SDS011;10250;50.756;6.172;2022-07-06T07:27:23;5.60;;;1.20;;
20181;SDS011;10250;50.756;6.172;2022-07-06T07:29:23;5.70;;;0.93;;
20181;SDS011;10250;50.756;6.172;2022-07-06T07:31:24;6.07;;;1.37;;
20181;SDS011;10250;50.756;6.172;2022-07-06T07:33:25;2.90;;;1.07;;
20181;SDS011;10250;50.756;6.172;2022-07-06T07:35:25;3.90;;;1.07;;
20181;SDS011;10250;50.756;6.172;2022-07-06T07:37:26;2.23;;;0.90;;
20181;SDS011;10250;50.756;6.172;2022-07-06T07:39:27;3.17;;;1.07;;
20181;SDS011;10250;50.756;6.172;2022-07-06T07:41:27;1.97;;;1.00;;
20181;SDS011;10250;50.756;6.172;2022-07-06T07:43:28;3.83;;;1.00;;
20181;SDS011;10250;50.756;6.172;2022-07-06T07:45:29;1.53;;;0.77;;
20181;SDS011;10250;50.756;6.172;2022-07-06T07:47:29;2.80;;;0.90;;
20181;SDS011;10250;50.756;6.172;2022-07-06T07:49:30;2.97;;;1.17;;
20181;SDS011;10250;50.756;6.172;2022-07-06T07:51:30;1.40;;;0.80;;
20181;SDS011;10250;50.756;6.172;2022-07-06T07:53:31;2.57;;;1.10;;
20181;SDS011;10250;50.756;6.172;2022-07-06T07:55:31;2.77;;;1.10;;
20181;SDS011;10250;50.756;6.172;2022-07-06T07:57:32;2.07;;;1.23;;
20181;SDS011;10250;50.756;6.172;2022-07-06T07:59:33;2.93;;;1.00;;
20181;SDS011;10250;50.756;6.172;2022-07-06T08:01:33;3.53;;;1.10;;
20181;SDS011;10250;50.756;6.172;2022-07-06T08:03:34;3.27;;;1.30;;
20181;SDS011;10250;50.756;6.172;2022-07-06T08:05:35;6.40;;;1.23;;
20181;SDS011;10250;50.756;6.172;2022-07-06T08:07:35;3.47;;;1.20;;
20181;SDS011;10250;50.756;6.172;2022-07-06T08:09:36;3.37;;;1.20;;
20181;SDS011;10250;50.756;6.172;2022-07-06T08:11:36;4.97;;;1.30;;
20181;SDS011;10250;50.756;6.172;2022-07-06T08:13:37;2.93;;;1.20;;
20181;SDS011;10250;50.756;6.172;2022-07-06T08:15:38;5.30;;;1.33;;
20181;SDS011;10250;50.756;6.172;2022-07-06T08:17:39;3.37;;;1.20;;
20181;SDS011;10250;50.756;6.172;2022-07-06T08:19:39;5.17;;;1.30;;
20181;SDS011;10250;50.756;6.172;2022-07-06T08:21:40;4.47;;;1.80;;
20181;SDS011;10250;50.756;6.172;2022-07-06T08:23:41;5.33;;;1.40;;
20181;SDS011;10250;50.756;6.172;2022-07-06T08:25:42;5.20;;;1.40;;
20181;SDS011;10250;50.756;6.172;2022-07-06T08:27:43;6.63;;;1.50;;
20181;SDS011;10250;50.756;6.172;2022-07-06T08:29:44;4.77;;;1.40;;
20181;SDS011;10250;50.756;6.172;2022-07-06T08:31:44;3.30;;;1.13;;
20181;SDS011;10250;50.756;6.172;2022-07-06T08:33:45;3.73;;;1.27;;
20181;SDS011;10250;50.756;6.172;2022-07-06T08:35:45;4.57;;;1.50;;
20181;SDS011;10250;50.756;6.172;2022-07-06T08:37:46;5.20;;;1.30;;
20181;SDS011;10250;50.756;6.172;2022-07-06T08:39:47;3.53;;;1.30;;
20181;SDS011;10250;50.756;6.172;2022-07-06T08:41:47;5.37;;;1.60;;
20181;SDS011;10250;50.756;6.172;2022-07-06T08:43:49;6.07;;;1.60;;
20181;SDS011;10250;50.756;6.172;2022-07-06T08:45:51;6.23;;;1.57;;
20181;SDS011;10250;50.756;6.172;2022-07-06T08:47:53;3.50;;;1.30;;
20181;SDS011;10250;50.756;6.172;2022-07-06T08:49:55;3.97;;;1.43;;
20181;SDS011;10250;50.756;6.172;2022-07-06T08:51:56;3.70;;;1.40;;
20181;SDS011;10250;50.756;6.172;2022-07-06T08:53:57;5.40;;;1.50;;
20181;SDS011;10250;50.756;6.172;2022-07-06T08:55:59;5.27;;;1.10;;
20181;SDS011;10250;50.756;6.172;2022-07-06T08:58:01;4.27;;;1.30;;
20181;SDS011;10250;50.756;6.172;2022-07-06T09:00:04;4.00;;;1.33;;
20181;SDS011;10250;50.756;6.172;2022-07-06T09:02:09;5.03;;;1.37;;
20181;SDS011;10250;50.756;6.172;2022-07-06T09:04:10;3.57;;;1.37;;
20181;SDS011;10250;50.756;6.172;2022-07-06T09:06:13;1.50;;;0.80;;
20181;SDS011;10250;50.756;6.172;2022-07-06T09:08:19;3.03;;;1.10;;
20181;SDS011;10250;50.756;6.172;2022-07-06T09:10:22;3.87;;;1.27;;
20181;SDS011;10250;50.756;6.172;2022-07-06T09:12:22;3.10;;;1.20;;
20181;SDS011;10250;50.756;6.172;2022-07-06T09:14:26;2.93;;;1.10;;
20181;SDS011;10250;50.756;6.172;2022-07-06T09:16:29;2.13;;;1.00;;
20181;SDS011;10250;50.756;6.172;2022-07-06T09:18:30;3.10;;;1.30;;
20181;SDS011;10250;50.756;6.172;2022-07-06T09:20:30;6.10;;;1.20;;
20181;SDS011;10250;50.756;6.172;2022-07-06T09:22:32;2.43;;;1.00;;
20181;SDS011;10250;50.756;6.172;2022-07-06T09:24:33;3.27;;;1.33;;
20181;SDS011;10250;50.756;6.172;2022-07-06T09:26:42;3.57;;;1.10;;
20181;SDS011;10250;50.756;6.172;2022-07-06T09:28:43;2.93;;;0.87;;
20181;SDS011;10250;50.756;6.172;2022-07-06T09:30:45;2.57;;;1.00;;
20181;SDS011;10250;50.756;6.172;2022-07-06T09:32:50;2.67;;;0.90;;
20181;SDS011;10250;50.756;6.172;2022-07-06T09:34:52;1.73;;;0.80;;
20181;SDS011;10250;50.756;6.172;2022-07-06T09:36:52;1.33;;;0.90;;
20181;SDS011;10250;50.756;6.172;2022-07-06T09:38:53;1.30;;;0.73;;
20181;SDS011;10250;50.756;6.172;2022-07-06T09:40:53;2.30;;;0.90;;
20181;SDS011;10250;50.756;6.172;2022-07-06T09:45:20;1.00;;;0.67;;
20181;SDS011;10250;50.756;6.172;2022-07-06T09:47:21;1.57;;;0.73;;
20181;SDS011;10250;50.756;6.172;2022-07-06T09:49:22;1.17;;;0.77;;
20181;SDS011;10250;50.756;6.172;2022-07-06T09:51:23;2.23;;;0.70;;
20181;SDS011;10250;50.756;6.172;2022-07-06T09:53:30;3.67;;;1.03;;
20181;SDS011;10250;50.756;6.172;2022-07-06T09:55:30;2.73;;;1.10;;
20181;SDS011;10250;50.756;6.172;2022-07-06T09:57:31;2.90;;;1.00;;
20181;SDS011;10250;50.756;6.172;2022-07-06T09:59:32;3.07;;;1.20;;
20181;SDS011;10250;50.756;6.172;2022-07-06T10:01:33;3.73;;;1.10;;
20181;SDS011;10250;50.756;6.172;2022-07-06T10:03:35;1.70;;;0.80;;
20181;SDS011;10250;50.756;6.172;2022-07-06T10:05:36;2.63;;;0.90;;
20181;SDS011;10250;50.756;6.172;2022-07-06T10:07:37;2.80;;;1.00;;
20181;SDS011;10250;50.756;6.172;2022-07-06T10:09:38;0.83;;;0.70;;
20181;SDS011;10250;50.756;6.172;2022-07-06T10:11:42;3.00;;;1.00;;
20181;SDS011;10250;50.756;6.172;2022-07-06T10:13:54;2.40;;;0.87;;
20181;SDS011;10250;50.756;6.172;2022-07-06T10:15:56;2.60;;;0.97;;
20181;SDS011;10250;50.756;6.172;2022-07-06T10:17:58;3.33;;;1.30;;
20181;SDS011;10250;50.756;6.172;2022-07-06T10:20:01;4.53;;;0.80;;
20181;SDS011;10250;50.756;6.172;2022-07-06T10:22:02;2.27;;;0.70;;
20181;SDS011;10250;50.756;6.172;2022-07-06T10:24:04;4.03;;;0.93;;
20181;SDS011;10250;50.756;6.172;2022-07-06T10:26:05;1.30;;;0.80;;
20181;SDS011;10250;50.756;6.172;2022-07-06T10:28:08;0.93;;;0.70;;
20181;SDS011;10250;50.756;6.172;2022-07-06T10:30:15;4.23;;;0.90;;
20181;SDS011;10250;50.756;6.172;2022-07-06T10:32:19;2.83;;;0.97;;
20181;SDS011;10250;50.756;6.172;2022-07-06T10:34:21;2.20;;;0.83;;
20181;SDS011;10250;50.756;6.172;2022-07-06T10:36:22;2.47;;;0.83;;
20181;SDS011;10250;50.756;6.172;2022-07-06T10:38:31;1.87;;;0.90;;
20181;SDS011;10250;50.756;6.172;2022-07-06T10:40:33;2.17;;;0.90;;
20181;SDS011;10250;50.756;6.172;2022-07-06T10:45:01;2.53;;;0.90;;
20181;SDS011;10250;50.756;6.172;2022-07-06T10:47:02;2.20;;;1.00;;
20181;SDS011;10250;50.756;6.172;2022-07-06T10:49:03;1.70;;;0.83;;
20181;SDS011;10250;50.756;6.172;2022-07-06T10:51:24;2.60;;;0.80;;
20181;SDS011;10250;50.756;6.172;2022-07-06T10:53:27;1.70;;;0.90;;
20181;SDS011;10250;50.756;6.172;2022-07-06T10:55:31;0.87;;;0.60;;
20181;SDS011;10250;50.756;6.172;2022-07-06T10:57:51;3.97;;;0.90;;
20181;SDS011;10250;50.756;6.172;2022-07-06T11:00:02;2.33;;;0.93;;
20181;SDS011;10250;50.756;6.172;2022-07-06T11:02:11;4.70;;;1.10;;
20181;SDS011;10250;50.756;6.172;2022-07-06T11:04:15;1.47;;;0.80;;
20181;SDS011;10250;50.756;6.172;2022-07-06T11:08:18;3.87;;;0.70;;
20181;SDS011;10250;50.756;6.172;2022-07-06T11:10:18;1.37;;;0.73;;
20181;SDS011;10250;50.756;6.172;2022-07-06T11:12:22;0.60;;;0.60;;
20181;SDS011;10250;50.756;6.172;2022-07-06T11:14:23;2.30;;;0.90;;
20181;SDS011;10250;50.756;6.172;2022-07-06T11:16:27;1.73;;;0.90;;
20181;SDS011;10250;50.756;6.172;2022-07-06T11:18:40;2.00;;;0.80;;
20181;SDS011;10250;50.756;6.172;2022-07-06T11:20:41;1.50;;;0.87;;
20181;SDS011;10250;50.756;6.172;2022-07-06T11:22:42;3.30;;;1.00;;
20181;SDS011;10250;50.756;6.172;2022-07-06T11:24:46;2.80;;;0.90;;
20181;SDS011;10250;50.756;6.172;2022-07-06T11:26:48;2.10;;;0.90;;
20181;SDS011;10250;50.756;6.172;2022-07-06T11:28:50;1.33;;;0.60;;
20181;SDS011;10250;50.756;6.172;2022-07-06T11:30:52;2.23;;;0.70;;
20181;SDS011;10250;50.756;6.172;2022-07-06T11:32:52;2.17;;;0.90;;
20181;SDS011;10250;50.756;6.172;2022-07-06T11:34:53;1.67;;;0.77;;
20181;SDS011;10250;50.756;6.172;2022-07-06T11:36:54;2.57;;;0.90;;
20181;SDS011;10250;50.756;6.172;2022-07-06T11:38:57;1.37;;;0.90;;
20181;SDS011;10250;50.756;6.172;2022-07-06T11:40:58;5.93;;;1.10;;
20181;SDS011;10250;50.756;6.172;2022-07-06T11:42:59;2.93;;;1.00;;
20181;SDS011;10250;50.756;6.172;2022-07-06T11:44:59;0.80;;;0.80;;
20181;SDS011;10250;50.756;6.172;2022-07-06T11:47:00;0.97;;;0.70;;
20181;SDS011;10250;50.756;6.172;2022-07-06T11:49:05;0.90;;;0.77;;
20181;SDS011;10250;50.756;6.172;2022-07-06T11:51:07;2.73;;;0.70;;
20181;SDS011;10250;50.756;6.172;2022-07-06T11:53:08;2.93;;;1.00;;
20181;SDS011;10250;50.756;6.172;2022-07-06T11:55:13;2.67;;;1.00;;
20181;SDS011;10250;50.756;6.172;2022-07-06T11:57:15;0.60;;;0.60;;
20181;SDS011;10250;50.756;6.172;2022-07-06T11:59:16;1.07;;;0.70;;
20181;SDS011;10250;50.756;6.172;2022-07-06T12:01:25;1.33;;;0.67;;
20181;SDS011;10250;50.756;6.172;2022-07-06T12:03:29;2.53;;;0.80;;
20181;SDS011;10250;50.756;6.172;2022-07-06T12:05:30;1.83;;;0.90;;
20181;SDS011;10250;50.756;6.172;2022-07-06T12:07:31;1.07;;;0.77;;
20181;SDS011;10250;50.756;6.172;2022-07-06T12:09:32;1.20;;;0.60;;
20181;SDS011;10250;50.756;6.172;2022-07-06T12:11:36;1.03;;;0.73;;
20181;SDS011;10250;50.756;6.172;2022-07-06T12:13:39;2.23;;;0.90;;
20181;SDS011;10250;50.756;6.172;2022-07-06T12:15:40;1.53;;;0.80;;
20181;SDS011;10250;50.756;6.172;2022-07-06T12:17:46;1.20;;;0.80;;
20181;SDS011;10250;50.756;6.172;2022-07-06T12:19:52;1.80;;;0.80;;
20181;SDS011;10250;50.756;6.172;2022-07-06T12:21:54;2.40;;;0.70;;